createdAt,value
2022-10-17T00:01:05.994Z,10.51
2022-10-17T00:03:34.600Z,10.52
2022-10-17T00:06:10.593Z,10.57
2022-10-17T00:08:40.979Z,10.48
2022-10-17T00:11:14.041Z,10.52
2022-10-17T00:13:41.519Z,10.55
2022-10-17T00:16:09.545Z,10.55
2022-10-17T00:18:36.994Z,10.51
2022-10-17T00:21:04.862Z,10.53
2022-10-17T00:23:33.552Z,10.54
2022-10-17T00:26:05.933Z,10.62
2022-10-17T00:28:33.916Z,10.57
2022-10-17T00:31:05.285Z,10.61
2022-10-17T00:33:35.714Z,10.62
2022-10-17T00:36:16.216Z,10.72
2022-10-17T00:38:45.737Z,10.65
2022-10-17T00:41:15.652Z,10.62
2022-10-17T00:44:04.034Z,10.76
2022-10-17T00:46:39.475Z,10.63
2022-10-17T00:49:11.633Z,10.66
2022-10-17T00:51:43.492Z,10.67
2022-10-17T00:54:13.541Z,10.62
2022-10-17T00:56:41.229Z,10.62
2022-10-17T00:59:14.014Z,10.74
2022-10-17T01:01:43.697Z,10.69
2022-10-17T01:04:11.230Z,10.65
2022-10-17T01:06:40.067Z,10.69
2022-10-17T01:09:07.632Z,10.70
2022-10-17T01:11:44.894Z,10.77
2022-10-17T01:14:32.727Z,10.89
2022-10-17T01:17:21.109Z,10.84
2022-10-17T01:20:26.066Z,10.87
2022-10-17T01:23:08.417Z,10.72
2022-10-17T01:26:00.354Z,10.82
2022-10-17T01:28:59.959Z,10.82
2022-10-17T01:31:54.182Z,10.80
2022-10-17T01:34:40.971Z,10.78
2022-10-17T01:37:26.446Z,10.82
2022-10-17T01:40:06.397Z,10.77
2022-10-17T01:42:49.053Z,10.78
2022-10-17T01:45:48.682Z,10.89
2022-10-17T01:48:30.383Z,10.71
2022-10-17T01:51:09.839Z,10.72
2022-10-17T01:53:46.880Z,10.75
2022-10-17T01:56:16.519Z,10.62
2022-10-17T01:58:52.271Z,10.71
2022-10-17T02:01:21.720Z,10.70
2022-10-17T02:03:51.512Z,10.64
2022-10-17T02:06:19.017Z,10.61
2022-10-17T02:08:47.802Z,10.63
2022-10-17T02:11:18.442Z,10.71
2022-10-17T02:13:56.383Z,10.76
2022-10-17T02:16:29.880Z,10.74
2022-10-17T02:19:20.753Z,10.79
2022-10-17T02:22:14.642Z,10.89
2022-10-17T02:24:47.734Z,10.84
2022-10-17T02:27:20.798Z,11.05
2022-10-17T02:29:52.549Z,10.79
2022-10-17T02:32:46.587Z,10.94
2022-10-17T02:35:20.012Z,10.75
2022-10-17T02:37:49.095Z,10.76
2022-10-17T02:40:19.280Z,10.76
2022-10-17T02:42:47.296Z,10.67
2022-10-17T02:45:16.042Z,10.69
2022-10-17T02:48:14.361Z,10.90
2022-10-17T02:51:19.189Z,10.91
2022-10-17T02:54:05.538Z,10.84
2022-10-17T02:56:40.091Z,10.79
2022-10-17T02:59:10.551Z,10.75
2022-10-17T03:01:38.492Z,10.76
2022-10-17T03:04:12.240Z,10.85
2022-10-17T03:06:41.143Z,10.75
2022-10-17T03:09:09.102Z,10.77
2022-10-17T03:11:36.629Z,10.78
2022-10-17T03:14:04.557Z,10.75
2022-10-17T03:16:32.648Z,10.76
2022-10-17T03:19:00.144Z,10.74
2022-10-17T03:21:28.009Z,10.86
2022-10-17T03:23:57.224Z,10.79
2022-10-17T03:26:24.959Z,10.76
2022-10-17T03:28:54.499Z,10.77
2022-10-17T03:31:23.756Z,10.78
2022-10-17T03:33:52.755Z,10.78
2022-10-17T03:36:20.966Z,10.79
2022-10-17T03:38:48.797Z,10.83
2022-10-17T03:41:17.669Z,10.81
2022-10-17T03:43:45.321Z,10.81
2022-10-17T03:46:13.074Z,10.78
2022-10-17T03:48:40.700Z,10.79
2022-10-17T03:51:09.960Z,10.82
2022-10-17T03:53:43.748Z,10.83
2022-10-17T03:56:18.088Z,10.91
2022-10-17T03:58:52.054Z,10.79
2022-10-17T04:01:19.805Z,10.87
2022-10-17T04:03:55.298Z,10.99
2022-10-17T04:06:23.290Z,10.90
2022-10-17T04:08:50.817Z,10.90
2022-10-17T04:11:24.460Z,10.97
2022-10-17T04:13:55.419Z,11.01
2022-10-17T04:16:24.370Z,10.99
2022-10-17T04:19:00.663Z,11.04
2022-10-17T04:21:33.105Z,11.05
2022-10-17T04:24:06.366Z,11.09
2022-10-17T04:27:02.880Z,11.11
2022-10-17T04:29:33.373Z,11.14
2022-10-17T04:32:16.194Z,11.20
2022-10-17T04:34:51.014Z,11.28
2022-10-17T04:37:20.471Z,11.24
2022-10-17T04:39:50.537Z,11.18
2022-10-17T04:42:17.996Z,11.23
2022-10-17T04:44:45.744Z,11.26
2022-10-17T04:47:16.322Z,11.35
2022-10-17T04:49:44.239Z,11.34
2022-10-17T04:52:12.183Z,11.34
2022-10-17T04:54:49.109Z,11.36
2022-10-17T04:57:17.621Z,11.39
2022-10-17T04:59:54.622Z,11.41
2022-10-17T05:02:48.216Z,11.50
2022-10-17T05:05:16.168Z,11.53
2022-10-17T05:07:46.026Z,11.55
2022-10-17T05:10:18.312Z,11.56
2022-10-17T05:12:49.576Z,11.62
2022-10-17T05:15:19.130Z,11.59
2022-10-17T05:17:46.840Z,11.65
2022-10-17T05:20:14.414Z,11.69
2022-10-17T05:22:42.457Z,11.67
2022-10-17T05:25:11.875Z,11.69
2022-10-17T05:27:39.817Z,11.71
2022-10-17T05:30:07.971Z,11.74
2022-10-17T05:32:37.371Z,11.76
2022-10-17T05:35:05.647Z,11.78
2022-10-17T05:37:33.695Z,11.76
2022-10-17T05:40:03.410Z,11.79
2022-10-17T05:42:32.216Z,11.79
2022-10-17T05:45:00.038Z,11.79
2022-10-17T05:47:28.184Z,11.79
2022-10-17T05:49:55.817Z,11.82
2022-10-17T05:52:33.051Z,11.81
2022-10-17T05:55:09.180Z,11.89
2022-10-17T05:57:36.693Z,11.91
2022-10-17T06:00:08.109Z,11.91
2022-10-17T06:02:49.680Z,11.90
2022-10-17T06:05:19.588Z,11.91
2022-10-17T06:07:49.472Z,11.85
2022-10-17T06:10:18.827Z,11.79
2022-10-17T06:12:46.722Z,11.79
2022-10-17T06:15:15.638Z,11.82
2022-10-17T06:17:48.971Z,11.86
2022-10-17T06:20:16.505Z,11.89
2022-10-17T06:22:44.150Z,11.91
2022-10-17T06:25:17.490Z,11.93
2022-10-17T06:27:45.145Z,11.91
2022-10-17T06:30:13.171Z,11.90
2022-10-17T06:32:40.686Z,11.95
2022-10-17T06:35:08.759Z,11.96
2022-10-17T06:37:38.234Z,11.97
2022-10-17T06:40:10.793Z,12.01
2022-10-17T06:42:40.034Z,12.03
2022-10-17T06:45:39.636Z,12.15
2022-10-17T06:48:17.699Z,12.12
2022-10-17T06:51:06.711Z,12.11
2022-10-17T06:53:44.598Z,12.15
2022-10-17T06:56:44.115Z,12.20
2022-10-17T06:59:27.201Z,12.55
2022-10-17T07:02:06.942Z,12.38
2022-10-17T07:04:34.424Z,12.44
2022-10-17T07:07:03.422Z,12.46
2022-10-17T07:09:33.320Z,12.59
2022-10-17T07:12:00.980Z,12.65
2022-10-17T07:14:32.337Z,12.75
2022-10-17T07:17:00.482Z,12.84
2022-10-17T07:19:29.991Z,12.88
2022-10-17T07:21:57.512Z,12.95
2022-10-17T07:24:25.930Z,13.02
2022-10-17T07:27:14.231Z,13.12
2022-10-17T07:29:41.668Z,13.14
2022-10-17T07:32:12.274Z,13.14
2022-10-17T07:34:40.891Z,13.22
2022-10-17T07:37:10.951Z,13.30
2022-10-17T07:39:41.389Z,13.32
2022-10-17T07:42:08.940Z,13.38
2022-10-17T07:44:36.564Z,13.43
2022-10-17T07:47:04.745Z,13.51
2022-10-17T07:49:32.329Z,13.61
2022-10-17T07:51:59.796Z,13.75
2022-10-17T07:54:27.193Z,13.81
2022-10-17T07:56:54.597Z,13.93
2022-10-17T07:59:22.135Z,14.05
2022-10-17T08:01:49.711Z,14.15
2022-10-17T08:04:17.838Z,14.25
2022-10-17T08:06:45.299Z,14.33
2022-10-17T08:09:12.827Z,14.38
2022-10-17T08:11:40.372Z,14.43
2022-10-17T08:14:07.934Z,14.44
2022-10-17T08:16:35.270Z,14.47
2022-10-17T08:19:03.019Z,14.50
2022-10-17T08:21:30.816Z,14.51
2022-10-17T08:23:58.433Z,14.51
2022-10-17T08:26:25.779Z,14.52
2022-10-17T08:28:53.318Z,14.56
2022-10-17T08:31:21.839Z,14.59
2022-10-17T08:33:50.760Z,14.62
2022-10-17T08:36:20.541Z,14.67
2022-10-17T08:38:51.776Z,14.67
2022-10-17T08:41:31.909Z,14.79
2022-10-17T08:44:11.511Z,14.90
2022-10-17T08:46:42.818Z,14.86
2022-10-17T08:49:33.305Z,14.88
2022-10-17T08:52:12.206Z,14.89
2022-10-17T08:54:46.414Z,14.90
2022-10-17T08:57:16.438Z,14.84
2022-10-17T08:59:46.328Z,14.85
2022-10-17T09:02:35.204Z,14.97
2022-10-17T09:05:14.696Z,15.05
2022-10-17T09:08:01.316Z,15.14
2022-10-17T09:11:08.054Z,15.22
2022-10-17T09:14:03.186Z,15.21
2022-10-17T09:16:55.024Z,15.24
2022-10-17T09:19:51.315Z,15.33
2022-10-17T09:22:25.412Z,15.28
2022-10-17T09:25:07.245Z,15.35
2022-10-17T09:27:40.829Z,15.32
2022-10-17T09:30:47.673Z,15.41
2022-10-17T09:33:35.222Z,15.32
2022-10-17T09:36:19.803Z,15.28
2022-10-17T09:38:54.241Z,15.24
2022-10-17T09:41:45.313Z,15.12
2022-10-17T09:44:16.937Z,15.10
2022-10-17T09:47:20.174Z,15.23
2022-10-17T09:49:48.671Z,15.08
2022-10-17T09:52:36.414Z,15.15
2022-10-17T09:55:12.802Z,15.06
2022-10-17T09:58:02.859Z,15.12
2022-10-17T10:00:36.953Z,14.99
2022-10-17T10:03:19.923Z,15.04
2022-10-17T10:06:06.053Z,15.09
2022-10-17T10:08:37.526Z,15.01
2022-10-17T10:11:13.359Z,14.95
2022-10-17T10:13:48.991Z,14.89
2022-10-17T10:16:19.769Z,14.97
2022-10-17T10:18:50.141Z,14.89
2022-10-17T10:21:24.399Z,14.97
2022-10-17T10:24:10.221Z,15.11
2022-10-17T10:26:45.294Z,14.99
2022-10-17T10:29:31.367Z,15.03
2022-10-17T10:32:07.722Z,14.91
2022-10-17T10:34:37.182Z,14.80
2022-10-17T10:37:22.061Z,14.93
2022-10-17T10:39:50.918Z,14.81
2022-10-17T10:42:25.985Z,14.84
2022-10-17T10:44:55.309Z,14.76
2022-10-17T10:47:24.734Z,14.75
2022-10-17T10:50:06.600Z,14.77
2022-10-17T10:52:48.120Z,14.88
2022-10-17T10:55:22.927Z,14.80
2022-10-17T10:57:53.891Z,14.68
2022-10-17T11:00:26.299Z,14.67
2022-10-17T11:03:50.811Z,14.83
2022-10-17T11:06:25.901Z,14.63
2022-10-17T11:09:26.220Z,14.56
2022-10-17T11:12:01.060Z,14.39
2022-10-17T11:14:28.465Z,14.20
2022-10-17T11:17:06.843Z,14.31
2022-10-17T11:19:59.587Z,14.17
2022-10-17T11:22:40.496Z,14.18
2022-10-17T11:25:23.113Z,14.08
2022-10-17T11:27:50.642Z,13.83
2022-10-17T11:30:18.376Z,13.71
2022-10-17T11:32:53.956Z,13.76
2022-10-17T11:35:25.195Z,13.51
2022-10-17T11:38:06.425Z,13.66
2022-10-17T11:40:41.098Z,13.65
2022-10-17T11:43:19.113Z,13.70
2022-10-17T11:45:53.003Z,13.62
2022-10-17T11:48:34.671Z,13.64
2022-10-17T11:54:23.905Z,13.73
2022-10-17T11:57:37.557Z,13.76
2022-10-17T12:00:32.432Z,13.69
2022-10-17T12:03:18.975Z,13.59
2022-10-17T12:06:11.517Z,13.59
2022-10-17T12:08:58.753Z,13.63
2022-10-17T12:11:35.132Z,13.40
2022-10-17T12:14:05.847Z,13.38
2022-10-17T12:16:39.653Z,13.46
2022-10-17T12:19:21.212Z,13.48
2022-10-17T12:21:56.375Z,13.39
2022-10-17T12:24:36.207Z,13.43
2022-10-17T12:27:23.768Z,13.49
2022-10-17T12:29:58.780Z,13.24
2022-10-17T12:32:30.316Z,13.17
2022-10-17T12:35:04.893Z,13.18
2022-10-17T12:37:58.633Z,13.44
2022-10-17T12:40:35.925Z,13.36
2022-10-17T12:43:29.481Z,13.42
2022-10-17T12:45:59.111Z,13.17
2022-10-17T12:48:38.453Z,13.24
2022-10-17T12:54:09.803Z,13.11
2022-10-17T12:56:41.546Z,13.03
2022-10-17T12:59:29.766Z,13.22
2022-10-17T13:02:00.543Z,13.05
2022-10-17T13:04:29.534Z,12.98
2022-10-17T13:07:00.958Z,13.03
2022-10-17T13:09:35.718Z,13.00
2022-10-17T13:12:10.884Z,12.94
2022-10-17T13:14:41.298Z,12.92
2022-10-17T13:17:29.066Z,13.06
2022-10-17T13:19:57.594Z,12.87
2022-10-17T13:22:29.744Z,12.90
2022-10-17T13:25:15.931Z,13.03
2022-10-17T13:27:43.953Z,12.88
2022-10-17T13:30:29.309Z,13.06
2022-10-17T13:33:01.395Z,12.83
2022-10-17T13:35:58.886Z,12.94
2022-10-17T13:38:30.181Z,12.96
2022-10-17T13:41:10.839Z,12.82
2022-10-17T13:43:45.545Z,12.76
2022-10-17T13:46:36.655Z,12.88
2022-10-17T13:49:56.517Z,12.98
2022-10-17T13:52:29.223Z,12.80
2022-10-17T13:55:08.751Z,12.84
2022-10-17T13:57:36.324Z,12.71
2022-10-17T14:00:11.401Z,12.74
2022-10-17T14:02:42.441Z,12.64
2022-10-17T14:05:23.487Z,12.72
2022-10-17T14:08:15.088Z,12.62
2022-10-17T14:10:44.539Z,12.92
2022-10-17T14:13:36.221Z,12.76
2022-10-17T14:16:04.853Z,12.57
2022-10-17T14:18:36.576Z,12.51
2022-10-17T14:24:27.328Z,12.59
2022-10-17T14:26:59.171Z,12.38
2022-10-17T14:29:32.176Z,12.35
2022-10-17T14:32:06.324Z,12.37
2022-10-17T14:34:37.578Z,12.27
2022-10-17T14:37:13.521Z,12.30
2022-10-17T14:39:41.121Z,12.07
2022-10-17T14:42:18.965Z,12.20
2022-10-17T14:44:51.128Z,12.13
2022-10-17T14:47:42.251Z,12.03
2022-10-17T14:50:12.876Z,12.12
2022-10-17T14:52:43.398Z,12.02
2022-10-17T14:55:30.177Z,12.15
2022-10-17T14:57:58.090Z,11.90
2022-10-17T15:00:26.583Z,11.93
2022-10-17T15:02:55.690Z,11.91
2022-10-17T15:05:23.703Z,11.86
2022-10-17T15:07:51.499Z,11.82
2022-10-17T15:10:32.220Z,12.00
2022-10-17T15:13:26.236Z,11.84
2022-10-17T15:15:52.313Z,11.84
2022-10-17T15:18:19.999Z,11.80
2022-10-17T15:20:50.090Z,11.72
2022-10-17T15:23:23.739Z,11.75
2022-10-17T15:25:51.205Z,11.68
2022-10-17T15:28:18.604Z,11.68
2022-10-17T15:30:46.054Z,11.69
2022-10-17T15:33:14.206Z,11.70
2022-10-17T15:35:43.903Z,11.72
2022-10-17T15:38:18.364Z,11.77
2022-10-17T15:40:49.107Z,11.72
2022-10-17T15:43:19.831Z,11.71
2022-10-17T15:45:48.129Z,11.66
2022-10-17T15:48:30.941Z,11.85
2022-10-17T15:50:58.414Z,11.68
2022-10-17T15:53:25.899Z,11.62
2022-10-17T15:55:53.337Z,11.61
2022-10-17T15:58:21.062Z,11.57
2022-10-17T16:00:49.041Z,11.49
2022-10-17T16:03:16.622Z,11.53
2022-10-17T16:05:45.575Z,11.58
2022-10-17T16:08:13.029Z,11.47
2022-10-17T16:10:41.250Z,11.51
2022-10-17T16:13:17.647Z,11.59
2022-10-17T16:15:45.071Z,11.44
2022-10-17T16:18:13.416Z,11.46
2022-10-17T16:20:40.936Z,11.43
2022-10-17T16:23:08.756Z,11.40
2022-10-17T16:25:36.190Z,11.38
2022-10-17T16:28:04.509Z,11.41
2022-10-17T16:30:32.739Z,11.42
2022-10-17T16:33:00.319Z,11.40
2022-10-17T16:35:33.407Z,11.48
2022-10-17T16:38:05.813Z,11.40
2022-10-17T16:40:33.487Z,11.34
2022-10-17T16:43:00.898Z,11.30
2022-10-17T16:45:29.184Z,11.37
2022-10-17T16:47:56.652Z,11.35
2022-10-17T16:50:24.701Z,11.30
2022-10-17T16:52:52.172Z,11.31
2022-10-17T16:55:19.631Z,11.30
2022-10-17T16:57:49.392Z,11.27
2022-10-17T17:00:18.274Z,11.26
2022-10-17T17:02:48.165Z,11.30
2022-10-17T17:05:16.190Z,11.26
2022-10-17T17:07:43.629Z,11.24
2022-10-17T17:10:11.117Z,11.17
2022-10-17T17:12:39.848Z,11.14
2022-10-17T17:15:07.465Z,11.15
2022-10-17T17:17:49.731Z,11.15
2022-10-17T17:20:18.870Z,11.16
2022-10-17T17:22:46.255Z,11.11
2022-10-17T17:25:13.794Z,11.09
2022-10-17T17:27:41.429Z,11.08
2022-10-17T17:30:09.241Z,11.08
2022-10-17T17:32:36.676Z,11.03
2022-10-17T17:35:05.113Z,11.03
2022-10-17T17:37:32.841Z,11.03
2022-10-17T17:40:00.411Z,10.96
2022-10-17T17:42:27.983Z,10.94
2022-10-17T17:44:55.410Z,10.96
2022-10-17T17:47:22.875Z,10.97
2022-10-17T17:49:53.671Z,10.96
2022-10-17T17:52:21.104Z,10.94
2022-10-17T17:54:49.983Z,10.94
2022-10-17T17:57:17.642Z,10.89
2022-10-17T17:59:45.242Z,10.90
2022-10-17T18:02:12.817Z,10.90
2022-10-17T18:04:41.141Z,10.88
2022-10-17T18:07:08.517Z,10.83
2022-10-17T18:09:35.991Z,10.83
2022-10-17T18:12:03.492Z,10.86
2022-10-17T18:14:30.781Z,10.78
2022-10-17T18:16:58.263Z,10.78
2022-10-17T18:19:28.594Z,10.74
2022-10-17T18:21:56.308Z,10.71
2022-10-17T18:24:23.892Z,10.69
2022-10-17T18:26:54.229Z,10.58
2022-10-17T18:29:21.957Z,10.55
2022-10-17T18:31:49.433Z,10.48
2022-10-17T18:34:21.936Z,10.39
2022-10-17T18:36:49.339Z,10.35
2022-10-17T18:39:16.972Z,10.38
2022-10-17T18:41:44.588Z,10.37
2022-10-17T18:44:15.984Z,10.38
2022-10-17T18:46:43.532Z,10.28
2022-10-17T18:49:13.520Z,10.28
2022-10-17T18:51:42.136Z,10.24
2022-10-17T18:54:14.773Z,10.36
2022-10-17T18:56:42.462Z,10.24
2022-10-17T18:59:10.035Z,10.22
2022-10-17T19:01:38.880Z,10.16
2022-10-17T19:04:06.448Z,10.17
2022-10-17T19:06:33.796Z,10.14
2022-10-17T19:09:04.378Z,10.14
2022-10-17T19:11:33.699Z,10.16
2022-10-17T19:14:03.868Z,10.14
2022-10-17T19:16:34.613Z,10.12
2022-10-17T19:19:08.096Z,10.11
2022-10-17T19:21:35.663Z,10.06
2022-10-17T19:24:05.946Z,10.10
2022-10-17T19:26:35.850Z,10.06
2022-10-17T19:29:04.993Z,10.06
2022-10-17T19:31:33.752Z,10.03
2022-10-17T19:34:01.266Z,9.91
2022-10-17T19:36:33.377Z,9.99
2022-10-17T19:39:04.395Z,9.98
2022-10-17T19:41:32.489Z,9.86
2022-10-17T19:44:00.811Z,9.89
2022-10-17T19:46:29.865Z,9.85
2022-10-17T19:48:57.709Z,9.80
2022-10-17T19:51:25.678Z,9.76
2022-10-17T19:53:54.948Z,9.76
2022-10-17T19:56:24.545Z,9.79
2022-10-17T19:58:54.306Z,9.76
2022-10-17T20:01:29.397Z,9.77
2022-10-17T20:03:57.339Z,9.69
2022-10-17T20:06:25.186Z,9.69
2022-10-17T20:08:52.752Z,9.76
2022-10-17T20:11:23.030Z,9.83
2022-10-17T20:13:50.987Z,9.78
2022-10-17T20:16:24.171Z,9.94
2022-10-17T20:18:54.804Z,9.95
2022-10-17T20:21:25.518Z,10.00
2022-10-17T20:23:53.593Z,9.95
2022-10-17T20:26:33.561Z,10.06
2022-10-17T20:29:11.492Z,10.03
2022-10-17T20:31:40.291Z,10.41
2022-10-17T20:34:07.955Z,10.21
2022-10-17T20:36:37.669Z,10.16
2022-10-17T20:39:06.403Z,10.15
2022-10-17T20:41:34.708Z,10.24
2022-10-17T20:44:02.242Z,10.26
2022-10-17T20:46:36.787Z,10.27
2022-10-17T20:49:07.153Z,10.34
2022-10-17T20:51:35.422Z,10.34
2022-10-17T20:54:03.451Z,10.34
2022-10-17T20:56:32.787Z,10.41
2022-10-17T20:59:02.690Z,10.44
2022-10-17T21:01:32.093Z,10.50
2022-10-17T21:04:10.492Z,10.47
2022-10-17T21:06:43.590Z,10.49
2022-10-17T21:09:11.041Z,10.52
2022-10-17T21:11:39.533Z,10.55
2022-10-17T21:14:08.266Z,10.56
2022-10-17T21:16:37.187Z,10.55
2022-10-17T21:19:05.765Z,10.50
2022-10-17T21:21:38.327Z,10.47
2022-10-17T21:24:09.256Z,10.54
2022-10-17T21:26:37.891Z,10.53
2022-10-17T21:29:06.460Z,10.57
2022-10-17T21:31:36.953Z,10.55
2022-10-17T21:34:13.198Z,10.62
2022-10-17T21:36:40.846Z,10.54
2022-10-17T21:41:41.371Z,10.55
2022-10-17T21:44:14.704Z,10.62
2022-10-17T21:46:42.605Z,10.55
2022-10-17T21:49:12.442Z,10.56
2022-10-17T21:51:40.435Z,10.50
2022-10-17T21:54:08.293Z,10.46
2022-10-17T21:56:36.601Z,10.45
2022-10-17T21:59:05.190Z,10.49
2022-10-17T22:01:38.849Z,10.57
2022-10-17T22:04:10.509Z,10.55
2022-10-17T22:06:40.902Z,10.48
2022-10-17T22:09:13.223Z,10.51
2022-10-17T22:11:41.725Z,10.44
2022-10-17T22:14:13.881Z,10.52
2022-10-17T22:16:42.329Z,10.55
2022-10-17T22:19:12.728Z,10.57
2022-10-17T22:21:40.397Z,10.49
2022-10-17T22:24:10.821Z,10.54
2022-10-17T22:26:38.919Z,10.54
2022-10-17T22:29:08.078Z,10.67
2022-10-17T22:31:36.440Z,10.54
2022-10-17T22:34:05.596Z,10.51
2022-10-17T22:36:34.309Z,10.53
2022-10-17T22:39:02.238Z,10.46
2022-10-17T22:41:29.881Z,10.36
2022-10-17T22:43:57.666Z,10.40
2022-10-17T22:46:25.624Z,10.41
2022-10-17T22:48:53.058Z,10.35
2022-10-17T22:51:20.625Z,10.31
2022-10-17T22:53:48.259Z,10.34
2022-10-17T22:56:18.793Z,10.33
2022-10-17T22:58:46.498Z,10.24
2022-10-17T23:01:17.420Z,10.29
2022-10-17T23:03:45.280Z,10.16
2022-10-17T23:06:13.291Z,10.22
2022-10-17T23:08:41.423Z,10.21
2022-10-17T23:11:09.643Z,10.15
2022-10-17T23:13:37.624Z,10.11
2022-10-17T23:16:05.373Z,10.06
2022-10-17T23:18:33.405Z,10.09
2022-10-17T23:21:00.876Z,10.06
2022-10-17T23:23:28.396Z,10.02
2022-10-17T23:25:56.651Z,9.98
2022-10-17T23:28:24.054Z,9.86
2022-10-17T23:30:51.483Z,9.86
2022-10-17T23:33:18.849Z,9.83
2022-10-17T23:35:46.336Z,9.87
2022-10-17T23:38:13.650Z,9.85
2022-10-17T23:40:41.047Z,9.83
2022-10-17T23:43:08.435Z,9.82
2022-10-17T23:45:37.202Z,9.75
2022-10-17T23:48:06.035Z,9.67
2022-10-17T23:50:33.474Z,9.74
2022-10-17T23:53:00.958Z,9.69
2022-10-17T23:55:28.463Z,9.66
2022-10-17T23:57:55.869Z,9.58
